Archival Weather

Luke Afb

Glendale, Arizona (KLUF)

Report from: Friday, April 19, 2024 3:55 AM MST
Current time: Monday, June 24, 2024 1:59 AM MST

Current weather – Weather history – Daily summaries
Weather forecast

Temperature17.2°C (63.0°F)
Dew point-0.1°C (31.8°F)
Winds 6 kts (3.1 m/s, 6.9 mph) North-Northwest (330°)
Visibility10 mi. (16.1 km)
Clouds Sky clear
Altimeter29.81 in.Hg (1009 mB)
Relative humidity31 %
Density altitude518 ft. (158 m)
Sea-level pressure100.8 kPa (1008 mB, 29.78 in.Hg)
Remarks Fully automated report
System requires maintenance
Automated weather observing station with precipitation discriminator
Flight conditions Visual Meteorological Conditions
Raw dataKLUF 191055Z AUTO 33006KT 10SM CLR 17/M00 A2981 RMK AO2 SLP084 T01721001 $
An error has occurred. This application may no longer respond until reloaded. Reload 🗙